KPOB/POB METAR and TAF weather

Enter ICAO airport designator
Station Type Date Time Source
KPOB METAR 2022/01/18 06:56 UTC NOAA

KPOB 180656Z AUTO 22003KT 10SM CLR M01/M06 A2997 RMK AO2 SLP153 T10101056 $


Station Type Date Time Source
KPOB Decoded METAR 2022/01/18 06:56 UTC NOAA

Pope Air Force Base, NC, United States (KPOB) 35-10N 079-02W 61M
Jan 18, 2022 - 01:56 AM EST / 2022.01.18 0656 UTC
Wind: from the SW (220 degrees) at 3 MPH (3 KT):0
Visibility: 10 mile(s):0
Sky conditions: clear
Temperature: 30.2 F (-1.0 C)
Dew Point: 21.9 F (-5.6 C)
Relative Humidity: 70%
Pressure (altimeter): 29.97 in. Hg (1014 hPa)
ob: KPOB 180656Z AUTO 22003KT 10SM CLR M01/M06 A2997 RMK AO2 SLP153 T10101056
cycle: 7

Station Type Date Time Source
KPOB TAF 2022/01/15 02:06 UTC NOAA

TAF KPOB 150200Z 1502/1608 36004KT 9999 SCT200 QNH2998INS
BECMG 1514/1515 06008KT 9999 SCT030 BKN120 BKN200 QNH3015INS
BECMG 1605/1606 06010G15KT 8000 -SN SCT025 OVC050 620505 QNH3013INS TX10/1520Z TN00/1512Z LAST NO
AMDS AFT 1503 NEXT 1818

Example: see airport list